createdAt,value
2022-10-05T00:02:22.642Z,101616.86
2022-10-05T00:04:54.833Z,101620.21
2022-10-05T00:07:24.736Z,101623.72
2022-10-05T00:09:57.090Z,101627.75
2022-10-05T00:12:29.118Z,101627.23
2022-10-05T00:15:01.061Z,101632.66
2022-10-05T00:17:31.237Z,101630.36
2022-10-05T00:20:00.427Z,101629.82
2022-10-05T00:22:32.803Z,101632.23
2022-10-05T00:25:11.190Z,101633.30
2022-10-05T00:27:40.526Z,101631.05
2022-10-05T00:30:16.496Z,101629.80
2022-10-05T00:32:46.372Z,101637.98
2022-10-05T00:35:17.585Z,101635.16
2022-10-05T00:37:52.539Z,101637.09
2022-10-05T00:40:32.513Z,101636.38
2022-10-05T00:43:21.880Z,101638.15
2022-10-05T00:45:56.967Z,101639.56
2022-10-05T00:48:36.693Z,101645.35
2022-10-05T00:51:25.091Z,101644.84
2022-10-05T00:54:07.541Z,101638.70
2022-10-05T00:57:11.151Z,101629.73
2022-10-05T00:59:51.643Z,101625.66
2022-10-05T01:02:35.834Z,101624.08
2022-10-05T01:05:12.722Z,101626.39
2022-10-05T01:07:50.176Z,101627.05
2022-10-05T01:10:29.248Z,101629.05
2022-10-05T01:13:08.174Z,101638.58
2022-10-05T01:15:45.878Z,101653.77
2022-10-05T01:18:22.125Z,101658.36
2022-10-05T01:21:03.119Z,101655.56
2022-10-05T01:23:52.789Z,101655.89
2022-10-05T01:26:45.566Z,101657.31
2022-10-05T01:29:22.604Z,101657.70
2022-10-05T01:31:58.474Z,101664.02
2022-10-05T01:34:36.324Z,101668.61
2022-10-05T01:37:15.353Z,101671.58
2022-10-05T01:39:47.428Z,101673.27
2022-10-05T01:42:28.554Z,101676.39
2022-10-05T01:45:03.872Z,101677.98
2022-10-05T01:47:42.441Z,101680.09
2022-10-05T01:50:19.987Z,101687.98
2022-10-05T01:53:00.328Z,101696.67
2022-10-05T01:55:39.125Z,101705.33
2022-10-05T01:58:15.427Z,101705.42
2022-10-05T02:01:01.079Z,101711.21
2022-10-05T02:03:35.857Z,101714.04
2022-10-05T02:06:10.411Z,101719.51
2022-10-05T02:08:44.006Z,101720.23
2022-10-05T02:11:14.862Z,101719.34
2022-10-05T02:13:47.766Z,101723.51
2022-10-05T02:16:21.477Z,101724.65
2022-10-05T02:18:54.899Z,101729.42
2022-10-05T02:21:25.544Z,101737.52
2022-10-05T02:23:57.594Z,101741.09
2022-10-05T02:26:27.842Z,101747.33
2022-10-05T02:29:01.514Z,101756.80
2022-10-05T02:31:37.281Z,101756.78
2022-10-05T02:34:27.062Z,101758.77
2022-10-05T02:37:12.107Z,101762.02
2022-10-05T02:39:57.862Z,101761.71
2022-10-05T02:42:32.883Z,101763.81
2022-10-05T02:45:14.300Z,101757.15
2022-10-05T02:47:51.876Z,101760.20
2022-10-05T02:50:29.802Z,101768.95
2022-10-05T02:53:08.944Z,101771.30
2022-10-05T02:55:46.601Z,101776.48
2022-10-05T02:58:21.100Z,101772.91
2022-10-05T03:00:59.906Z,101775.09
2022-10-05T03:03:31.297Z,101780.11
2022-10-05T03:06:03.113Z,101779.22
2022-10-05T03:08:40.074Z,101780.88
2022-10-05T03:11:18.225Z,101786.92
2022-10-05T03:13:52.992Z,101788.27
2022-10-05T03:16:35.173Z,101791.63
2022-10-05T03:19:18.913Z,101798.99
2022-10-05T03:21:58.942Z,101800.45
2022-10-05T03:24:47.613Z,101810.52
2022-10-05T03:27:23.017Z,101815.33
2022-10-05T03:30:02.350Z,101820.27
2022-10-05T03:32:41.253Z,101822.73
2022-10-05T03:35:16.373Z,101823.73
2022-10-05T03:37:51.571Z,101828.76
2022-10-05T03:40:29.398Z,101829.56
2022-10-05T03:43:26.949Z,101829.17
2022-10-05T03:46:03.097Z,101832.96
2022-10-05T03:48:40.201Z,101833.55
2022-10-05T03:51:15.783Z,101832.65
2022-10-05T03:53:50.969Z,101837.19
2022-10-05T03:56:30.044Z,101840.05
2022-10-05T03:59:00.956Z,101842.23
2022-10-05T04:01:38.886Z,101847.69
2022-10-05T04:04:18.937Z,101851.73
2022-10-05T04:06:49.955Z,101850.20
2022-10-05T04:09:24.095Z,101846.85
2022-10-05T04:11:58.147Z,101850.38
2022-10-05T04:14:32.689Z,101851.94
2022-10-05T04:17:06.782Z,101853.84
2022-10-05T04:19:43.678Z,101851.54
2022-10-05T04:22:19.735Z,101860.65
2022-10-05T04:24:56.197Z,101868.86
2022-10-05T04:27:31.922Z,101872.96
2022-10-05T04:30:07.676Z,101875.54
2022-10-05T04:32:41.559Z,101879.94
2022-10-05T04:35:26.462Z,101886.50
2022-10-05T04:38:06.225Z,101891.86
2022-10-05T04:40:48.579Z,101900.59
2022-10-05T04:43:56.777Z,101905.73
2022-10-05T04:51:16.143Z,101917.34
2022-10-05T04:54:14.631Z,101912.08
2022-10-05T04:57:35.450Z,101911.07
2022-10-05T05:00:57.527Z,101911.65
2022-10-05T05:04:28.343Z,101913.30
2022-10-05T05:07:27.924Z,101916.61
2022-10-05T05:10:21.729Z,101913.39
2022-10-05T05:13:06.399Z,101918.66
2022-10-05T05:15:48.596Z,101923.83
2022-10-05T05:18:46.845Z,101926.11
2022-10-05T05:21:30.558Z,101920.17
2022-10-05T05:24:10.277Z,101922.61
2022-10-05T05:27:01.809Z,101924.17
2022-10-05T05:29:43.170Z,101923.96
2022-10-05T05:32:23.248Z,101928.00
2022-10-05T05:35:13.506Z,101927.38
2022-10-05T05:37:54.207Z,101927.44
2022-10-05T05:40:28.296Z,101928.09
2022-10-05T05:43:02.392Z,101931.00
2022-10-05T05:45:42.693Z,101927.42
2022-10-05T05:48:19.009Z,101933.64
2022-10-05T05:50:59.059Z,101938.79
2022-10-05T05:53:41.584Z,101939.78
2022-10-05T05:56:13.459Z,101950.36
2022-10-05T05:58:49.076Z,101958.81
2022-10-05T06:01:33.162Z,101964.62
2022-10-05T06:04:10.986Z,101968.13
2022-10-05T06:06:44.709Z,101971.15
2022-10-05T06:09:21.061Z,101978.02
2022-10-05T06:11:53.967Z,101978.96
2022-10-05T06:14:29.673Z,101982.69
2022-10-05T06:17:04.153Z,101980.63
2022-10-05T06:19:36.703Z,101983.84
2022-10-05T06:22:14.894Z,101990.90
2022-10-05T06:24:58.063Z,101994.45
2022-10-05T06:27:34.251Z,101994.64
2022-10-05T06:30:10.030Z,101992.94
2022-10-05T06:32:54.190Z,101994.95
2022-10-05T06:35:35.824Z,101994.83
2022-10-05T06:38:24.557Z,101994.70
2022-10-05T06:41:02.796Z,101997.17
2022-10-05T06:43:43.216Z,102000.89
2022-10-05T06:46:19.137Z,101998.64
2022-10-05T06:49:08.892Z,101995.20
2022-10-05T06:51:45.251Z,101995.23
2022-10-05T06:54:29.402Z,101994.77
2022-10-05T06:57:05.205Z,101996.95
2022-10-05T06:59:43.338Z,101995.45
2022-10-05T07:02:22.266Z,101993.77
2022-10-05T07:05:15.642Z,101997.02
2022-10-05T07:07:54.163Z,102002.89
2022-10-05T07:10:33.670Z,102003.81
2022-10-05T07:13:22.224Z,102002.14
2022-10-05T07:15:58.854Z,102000.23
2022-10-05T07:18:53.412Z,102004.50
2022-10-05T07:21:35.228Z,102003.48
2022-10-05T07:24:22.209Z,102007.04
2022-10-05T07:26:58.990Z,102006.36
2022-10-05T07:29:33.302Z,102004.28
2022-10-05T07:32:19.595Z,102005.90
2022-10-05T07:35:00.017Z,102006.45
2022-10-05T07:37:57.110Z,102005.23
2022-10-05T07:40:32.834Z,102003.00
2022-10-05T07:43:18.938Z,102009.02
2022-10-05T07:45:55.446Z,102010.95
2022-10-05T07:48:32.713Z,102010.95
2022-10-05T07:51:16.020Z,102012.54
2022-10-05T07:53:52.266Z,102015.89
2022-10-05T07:56:25.692Z,102015.17
2022-10-05T07:59:01.145Z,102022.21
2022-10-05T08:01:34.370Z,102026.96
2022-10-05T08:04:20.128Z,102032.08
2022-10-05T08:06:56.690Z,102029.05
2022-10-05T08:09:39.816Z,102032.41
2022-10-05T08:12:31.389Z,102038.73
2022-10-05T08:15:12.063Z,102031.84
2022-10-05T08:17:47.910Z,102034.86
2022-10-05T08:20:30.179Z,102038.73
2022-10-05T08:23:23.879Z,102037.11
2022-10-05T08:26:05.507Z,102037.82
2022-10-05T08:28:39.407Z,102043.08
2022-10-05T08:31:18.832Z,102045.02
2022-10-05T08:33:58.238Z,102043.59
2022-10-05T08:36:44.348Z,102045.67
2022-10-05T08:39:18.184Z,102041.07
2022-10-05T08:42:25.570Z,102040.86
2022-10-05T08:45:46.410Z,102044.73
2022-10-05T08:48:42.984Z,102046.81
2022-10-05T08:51:45.297Z,102039.02
2022-10-05T08:54:46.676Z,102044.10
2022-10-05T08:57:52.911Z,102043.18
2022-10-05T09:00:23.335Z,102050.20
2022-10-05T09:03:19.287Z,102053.89
2022-10-05T09:06:20.172Z,102057.94
2022-10-05T09:09:07.961Z,102053.67
2022-10-05T09:11:40.107Z,102055.07
2022-10-05T09:14:52.445Z,102054.50
2022-10-05T09:17:49.583Z,102053.07
2022-10-05T09:20:30.248Z,102054.81
2022-10-05T09:23:08.961Z,102052.13
2022-10-05T09:25:56.314Z,102054.05
2022-10-05T09:28:31.775Z,102054.41
2022-10-05T09:31:18.897Z,102054.91
2022-10-05T09:34:18.934Z,102055.02
2022-10-05T09:37:24.813Z,102054.79
2022-10-05T09:40:36.921Z,102054.76
2022-10-05T09:43:32.242Z,102056.29
2022-10-05T09:46:29.566Z,102057.27
2022-10-05T09:49:15.427Z,102060.39
2022-10-05T09:52:17.889Z,102058.58
2022-10-05T09:55:27.101Z,102060.32
2022-10-05T09:58:27.916Z,102056.45
2022-10-05T10:01:36.385Z,102051.84
2022-10-05T10:04:39.061Z,102047.33
2022-10-05T10:07:39.721Z,102043.09
2022-10-05T10:10:38.380Z,102039.20
2022-10-05T10:13:32.553Z,102032.81
2022-10-05T10:16:17.561Z,102032.93
2022-10-05T10:19:17.516Z,102024.02
2022-10-05T10:22:09.044Z,102021.80
2022-10-05T10:24:52.192Z,102021.01
2022-10-05T10:27:40.301Z,102018.80
2022-10-05T10:30:37.454Z,102018.90
2022-10-05T10:33:30.269Z,102017.10
2022-10-05T10:36:06.989Z,102013.89
2022-10-05T10:38:51.402Z,102006.80
2022-10-05T10:42:01.019Z,102003.00
2022-10-05T10:45:28.147Z,101991.55
2022-10-05T10:48:04.823Z,101985.27
2022-10-05T10:51:04.811Z,101984.16
2022-10-05T10:54:07.883Z,101980.60
2022-10-05T10:56:56.658Z,101980.15
2022-10-05T11:00:00.292Z,101982.37
2022-10-05T11:02:53.979Z,101982.98
2022-10-05T11:05:36.273Z,101984.85
2022-10-05T11:08:43.262Z,101979.48
2022-10-05T11:11:28.905Z,101982.55
2022-10-05T11:14:20.664Z,101987.81
2022-10-05T11:17:23.995Z,101983.16
2022-10-05T11:20:25.095Z,101988.83
2022-10-05T11:23:03.431Z,101991.39
2022-10-05T11:25:55.107Z,101990.88
2022-10-05T11:29:06.202Z,101992.97
2022-10-05T11:32:00.770Z,101994.79
2022-10-05T11:34:48.601Z,101992.35
2022-10-05T11:37:48.562Z,101994.16
2022-10-05T11:40:51.749Z,101994.38
2022-10-05T11:44:00.295Z,101981.67
2022-10-05T11:46:41.741Z,101979.56
2022-10-05T11:49:22.896Z,101983.61
2022-10-05T11:52:06.240Z,101977.71
2022-10-05T11:55:11.068Z,101965.67
2022-10-05T11:57:48.605Z,101953.78
2022-10-05T12:00:20.359Z,101949.49
2022-10-05T12:03:15.061Z,101947.95
2022-10-05T12:05:56.885Z,101938.73
2022-10-05T12:08:34.681Z,101934.77
2022-10-05T12:11:26.428Z,101934.59
2022-10-05T12:14:01.835Z,101933.94
2022-10-05T12:16:36.003Z,101935.56
2022-10-05T12:19:13.578Z,101936.79
2022-10-05T12:21:50.062Z,101942.63
2022-10-05T12:24:27.044Z,101943.77
2022-10-05T12:27:01.594Z,101942.44
2022-10-05T12:29:38.568Z,101944.23
2022-10-05T12:32:16.709Z,101947.48
2022-10-05T12:34:52.885Z,101948.61
2022-10-05T12:37:42.470Z,101944.62
2022-10-05T12:40:28.117Z,101944.30
2022-10-05T12:43:09.471Z,101942.69
2022-10-05T12:45:53.295Z,101942.89
2022-10-05T12:48:44.804Z,101945.67
2022-10-05T12:51:19.888Z,101943.77
2022-10-05T12:53:56.690Z,101944.46
2022-10-05T12:56:36.777Z,101940.38
2022-10-05T12:59:18.812Z,101942.08
2022-10-05T13:01:57.618Z,101938.71
2022-10-05T13:04:38.347Z,101936.66
2022-10-05T13:07:26.943Z,101930.50
2022-10-05T13:10:03.069Z,101935.34
2022-10-05T13:12:43.412Z,101930.65
2022-10-05T13:15:24.120Z,101925.27
2022-10-05T13:18:04.275Z,101920.09
2022-10-05T13:20:41.614Z,101916.16
2022-10-05T13:23:16.993Z,101913.23
2022-10-05T13:25:54.586Z,101911.30
2022-10-05T13:28:30.140Z,101906.54
2022-10-05T13:31:06.551Z,101902.63
2022-10-05T13:34:01.513Z,101900.86
2022-10-05T13:36:42.035Z,101895.49
2022-10-05T13:39:26.944Z,101893.41
2022-10-05T13:42:05.255Z,101895.02
2022-10-05T13:44:42.874Z,101895.85
2022-10-05T13:47:20.616Z,101897.05
2022-10-05T13:49:54.969Z,101901.95
2022-10-05T13:52:33.916Z,101892.95
2022-10-05T13:55:14.434Z,101897.09
2022-10-05T13:57:55.095Z,101898.58
2022-10-05T14:00:27.103Z,101902.58
2022-10-05T14:03:00.269Z,101907.16
2022-10-05T14:05:31.067Z,101898.66
2022-10-05T14:08:17.270Z,101896.08
2022-10-05T14:10:47.745Z,101899.85
2022-10-05T14:13:26.432Z,101902.86
2022-10-05T14:16:20.975Z,101900.70
2022-10-05T14:18:56.547Z,101900.20
2022-10-05T14:21:28.826Z,101897.86
2022-10-05T14:27:22.044Z,101900.50
2022-10-05T14:30:00.090Z,101896.58
2022-10-05T14:32:30.737Z,101897.52
2022-10-05T14:35:14.601Z,101893.45
2022-10-05T14:37:55.533Z,101899.48
2022-10-05T14:40:36.108Z,101894.69
2022-10-05T14:43:20.120Z,101894.88
2022-10-05T14:45:57.426Z,101890.33
2022-10-05T14:48:28.829Z,101892.81
2022-10-05T14:51:02.885Z,101887.94
2022-10-05T14:53:39.907Z,101884.61
2022-10-05T14:56:34.386Z,101884.60
2022-10-05T14:59:22.754Z,101886.16
2022-10-05T15:01:58.601Z,101885.82
2022-10-05T15:04:49.301Z,101887.20
2022-10-05T15:07:24.523Z,101885.95
2022-10-05T15:10:19.146Z,101879.20
2022-10-05T15:12:48.667Z,101882.67
2022-10-05T15:15:27.866Z,101888.20
2022-10-05T15:18:01.369Z,101888.52
2022-10-05T15:20:42.759Z,101886.64
2022-10-05T15:23:24.436Z,101888.23
2022-10-05T15:26:03.981Z,101890.73
2022-10-05T15:28:38.277Z,101893.42
2022-10-05T15:31:30.041Z,101896.91
2022-10-05T15:34:06.911Z,101899.16
2022-10-05T15:36:43.177Z,101899.66
2022-10-05T15:39:26.911Z,101907.65
2022-10-05T15:42:01.221Z,101908.58
2022-10-05T15:45:05.041Z,101912.33
2022-10-05T15:47:47.009Z,101913.23
2022-10-05T15:50:22.830Z,101914.30
2022-10-05T15:52:56.606Z,101913.08
2022-10-05T15:55:51.067Z,101914.13
2022-10-05T15:58:42.738Z,101918.31
2022-10-05T16:01:17.327Z,101921.42
2022-10-05T16:03:51.004Z,101917.46
2022-10-05T16:07:09.223Z,101918.96
2022-10-05T16:09:49.332Z,101918.63
2022-10-05T16:12:35.425Z,101923.28
2022-10-05T16:15:28.462Z,101924.73
2022-10-05T16:18:36.722Z,101925.91
2022-10-05T16:21:21.120Z,101932.95
2022-10-05T16:24:10.129Z,101937.83
2022-10-05T16:26:56.553Z,101941.80
2022-10-05T16:29:39.565Z,101940.79
2022-10-05T16:32:14.084Z,101941.29
2022-10-05T16:34:57.514Z,101944.77
2022-10-05T16:37:37.753Z,101941.33
2022-10-05T16:40:18.418Z,101946.52
2022-10-05T16:42:59.095Z,101950.45
2022-10-05T16:45:51.042Z,101953.67
2022-10-05T16:48:26.928Z,101952.34
2022-10-05T16:51:16.910Z,101952.44
2022-10-05T16:53:58.806Z,101955.67
2022-10-05T16:56:37.582Z,101960.28
2022-10-05T16:59:25.791Z,101958.89
2022-10-05T17:02:02.237Z,101968.70
2022-10-05T17:04:45.107Z,101969.37
2022-10-05T17:07:34.473Z,101969.09
2022-10-05T17:10:36.630Z,101970.91
2022-10-05T17:13:19.643Z,101969.36
2022-10-05T17:16:03.575Z,101970.13
2022-10-05T17:19:10.790Z,101975.27
2022-10-05T17:21:45.713Z,101972.30
2022-10-05T17:24:24.751Z,101974.45
2022-10-05T17:27:17.233Z,101977.65
2022-10-05T17:29:51.385Z,101982.98
2022-10-05T17:32:35.602Z,101982.85
2022-10-05T17:35:21.721Z,101985.90
2022-10-05T17:38:19.554Z,101983.30
2022-10-05T17:41:16.658Z,101985.27
2022-10-05T17:44:18.714Z,101985.83
2022-10-05T17:46:49.671Z,101988.50
2022-10-05T17:49:27.430Z,101989.06
2022-10-05T17:52:40.870Z,101997.05
2022-10-05T17:55:29.611Z,101998.32
2022-10-05T17:58:00.825Z,101997.98
2022-10-05T18:00:55.860Z,101998.35
2022-10-05T18:03:38.255Z,102002.05
2022-10-05T18:06:31.940Z,102002.61
2022-10-05T18:09:32.613Z,102007.39
2022-10-05T18:12:41.207Z,102010.77
2022-10-05T18:15:48.048Z,102011.33
2022-10-05T18:18:54.146Z,102011.69
2022-10-05T18:21:37.898Z,102008.52
2022-10-05T18:24:44.871Z,102010.65
2022-10-05T18:27:33.646Z,102014.90
2022-10-05T18:30:18.912Z,102018.08
2022-10-05T18:33:25.212Z,102018.27
2022-10-05T18:36:04.829Z,102014.77
2022-10-05T18:38:52.458Z,102014.05
2022-10-05T18:41:31.619Z,102017.58
2022-10-05T18:44:19.041Z,102015.98
2022-10-05T18:46:56.395Z,102020.04
2022-10-05T18:49:38.708Z,102017.58
2022-10-05T18:52:17.173Z,102019.50
2022-10-05T18:54:54.223Z,102022.15
2022-10-05T18:57:58.874Z,102023.56
2022-10-05T19:00:42.783Z,102027.09
2022-10-05T19:03:23.635Z,102029.20
2022-10-05T19:06:02.889Z,102024.80
2022-10-05T19:08:42.044Z,102024.62
2022-10-05T19:11:19.089Z,102026.21
2022-10-05T19:13:57.294Z,102025.86
2022-10-05T19:16:40.997Z,102030.80
2022-10-05T19:19:43.496Z,102029.20
2022-10-05T19:22:29.418Z,102032.20
2022-10-05T19:25:30.235Z,102030.98
2022-10-05T19:28:19.054Z,102037.33
2022-10-05T19:31:10.822Z,102035.21
2022-10-05T19:34:02.710Z,102035.04
2022-10-05T19:36:50.196Z,102037.67
2022-10-05T19:39:31.986Z,102039.80
2022-10-05T19:42:25.225Z,102040.34
2022-10-05T19:45:19.375Z,102045.45
2022-10-05T19:48:25.306Z,102045.09
2022-10-05T19:51:11.567Z,102044.21
2022-10-05T19:53:50.927Z,102044.58
2022-10-05T19:56:31.607Z,102049.69
2022-10-05T19:59:25.033Z,102053.05
2022-10-05T20:02:10.873Z,102052.33
2022-10-05T20:04:48.922Z,102057.09
2022-10-05T20:07:26.459Z,102058.13
2022-10-05T20:10:29.729Z,102051.64
2022-10-05T20:13:09.472Z,102051.98
2022-10-05T20:16:37.142Z,102053.04
2022-10-05T20:22:47.922Z,102059.73
2022-10-05T20:25:43.435Z,102057.09
2022-10-05T20:28:37.187Z,102051.80
2022-10-05T20:31:14.576Z,102053.75
2022-10-05T20:33:48.711Z,102054.97
2022-10-05T20:36:21.218Z,102054.27
2022-10-05T20:38:57.796Z,102056.23
2022-10-05T20:41:30.618Z,102055.84
2022-10-05T20:44:04.413Z,102054.27
2022-10-05T20:46:36.837Z,102056.73
2022-10-05T20:49:11.369Z,102058.49
2022-10-05T20:51:43.749Z,102055.85
2022-10-05T20:54:19.220Z,102052.32
2022-10-05T20:56:53.240Z,102047.20
2022-10-05T20:59:27.431Z,102045.10
2022-10-05T21:02:01.773Z,102044.57
2022-10-05T21:04:41.289Z,102041.91
2022-10-05T21:07:21.186Z,102038.23
2022-10-05T21:09:56.017Z,102036.81
2022-10-05T21:12:28.419Z,102034.00
2022-10-05T21:15:01.726Z,102035.74
2022-10-05T21:17:35.302Z,102032.39
2022-10-05T21:20:11.789Z,102033.27
2022-10-05T21:22:44.150Z,102033.09
2022-10-05T21:25:16.627Z,102034.30
2022-10-05T21:27:50.583Z,102027.98
2022-10-05T21:30:23.045Z,102025.84
2022-10-05T21:32:55.492Z,102027.77
2022-10-05T21:35:27.980Z,102022.64
2022-10-05T21:38:00.298Z,102020.18
2022-10-05T21:40:33.166Z,102018.59
2022-10-05T21:43:05.483Z,102016.13
2022-10-05T21:45:38.525Z,102010.67
2022-10-05T21:48:11.463Z,102009.10
2022-10-05T21:50:44.598Z,102008.38
2022-10-05T21:53:22.614Z,102008.73
2022-10-05T21:55:57.687Z,102012.08
2022-10-05T21:58:32.446Z,102011.72
2022-10-05T22:01:05.087Z,102010.12
2022-10-05T22:03:38.323Z,102007.13
2022-10-05T22:06:11.399Z,102003.23
2022-10-05T22:08:43.796Z,102006.59
2022-10-05T22:11:18.662Z,102006.23
2022-10-05T22:13:53.290Z,102003.95
2022-10-05T22:16:27.182Z,102003.76
2022-10-05T22:18:59.848Z,102001.66
2022-10-05T22:21:38.135Z,101999.73
2022-10-05T22:24:11.535Z,102000.27
2022-10-05T22:26:46.768Z,101996.75
2022-10-05T22:29:19.973Z,101996.39
2022-10-05T22:31:56.350Z,101993.40
2022-10-05T22:34:31.462Z,101989.34
2022-10-05T22:37:04.661Z,101984.06
2022-10-05T22:39:36.988Z,101987.22
2022-10-05T22:42:10.273Z,101983.15
2022-10-05T22:44:42.703Z,101983.30
2022-10-05T22:47:15.227Z,101985.54
2022-10-05T22:49:51.191Z,101987.27
2022-10-05T22:52:23.768Z,101982.67
2022-10-05T22:54:56.597Z,101981.24
2022-10-05T22:57:29.436Z,101986.34
2022-10-05T23:00:01.848Z,101985.79
2022-10-05T23:02:36.948Z,101988.23
2022-10-05T23:05:10.533Z,101987.88
2022-10-05T23:07:45.008Z,101992.77
2022-10-05T23:10:22.643Z,101995.02
2022-10-05T23:13:03.879Z,101993.75
2022-10-05T23:15:37.963Z,101989.02
2022-10-05T23:18:10.818Z,101989.54
2022-10-05T23:20:43.661Z,101988.32
2022-10-05T23:23:16.042Z,101983.05
2022-10-05T23:25:51.693Z,101979.88
2022-10-05T23:28:24.921Z,101977.40
2022-10-05T23:31:02.374Z,101978.23
2022-10-05T23:33:35.313Z,101970.64
2022-10-05T23:36:11.404Z,101972.20
2022-10-05T23:38:43.897Z,101967.40
2022-10-05T23:41:17.344Z,101973.34
2022-10-05T23:43:50.077Z,101973.69
2022-10-05T23:46:22.741Z,101973.69
2022-10-05T23:48:55.186Z,101973.20
2022-10-05T23:51:27.825Z,101969.53
2022-10-05T23:54:00.300Z,101966.73
2022-10-05T23:56:32.991Z,101966.91
2022-10-05T23:59:05.597Z,101964.54
